Time;durP1;ratioP1;P1;durP2;ratioP2;P2;SDS_P1;SDS_P2;PMS_P1;PMS_P2;Temp;Humidity;BMP_temperature;BMP_pressure;BME280_temperature;BME280_humidity;BME280_pressure;Samples;Min_cycle;Max_cycle;Signal;HPM_P1;HPM_P2
2022/09/22 00:00:58;;;;;;;0.98;0.75;;;8.80;72.80;;;;;;5068832;28;20097;-76
2022/09/22 00:03:23;;;;;;;1.98;1.30;;;8.80;73.20;;;;;;5062722;28;20043;-76
2022/09/22 00:05:49;;;;;;;2.92;0.90;;;8.80;73.10;;;;;;5045574;28;20025;-77
2022/09/22 00:08:15;;;;;;;1.33;1.08;;;8.80;73.10;;;;;;5074852;28;20048;-77
2022/09/22 00:10:40;;;;;;;1.60;0.98;;;8.80;73.20;;;;;;5051026;28;20117;-76
2022/09/22 00:13:06;;;;;;;1.30;1.10;;;8.80;73.30;;;;;;5059226;28;20549;-76
2022/09/22 00:15:31;;;;;;;2.40;1.00;;;8.80;73.20;;;;;;5042388;28;20039;-76
2022/09/22 00:17:57;;;;;;;1.63;0.98;;;8.80;73.40;;;;;;5047026;28;20754;-77
2022/09/22 00:20:22;;;;;;;1.63;1.20;;;8.80;73.40;;;;;;5051542;28;20040;-77
2022/09/22 00:22:49;;;;;;;2.42;1.15;;;8.80;73.60;;;;;;5080506;28;20040;-77
2022/09/22 00:25:15;;;;;;;1.65;1.20;;;8.80;73.70;;;;;;5034932;28;20499;-76
2022/09/22 00:27:41;;;;;;;1.77;1.30;;;8.80;73.70;;;;;;5031151;28;20055;-77
2022/09/22 00:30:07;;;;;;;1.48;1.20;;;8.80;73.80;;;;;;5035642;28;20484;-76
2022/09/22 00:32:33;;;;;;;0.95;0.90;;;8.80;73.80;;;;;;5046366;28;20050;-77
2022/09/22 00:34:58;;;;;;;1.92;1.10;;;8.70;74.60;;;;;;5059188;28;20092;-77
2022/09/22 00:37:24;;;;;;;1.90;1.30;;;8.70;73.90;;;;;;5047310;28;20040;-76
2022/09/22 00:39:52;;;;;;;1.98;1.10;;;8.70;74.00;;;;;;5062229;28;20040;-77
2022/09/22 00:42:18;;;;;;;1.95;1.27;;;8.70;74.00;;;;;;5075794;28;20040;-75
2022/09/22 00:44:44;;;;;;;2.03;1.30;;;8.60;73.90;;;;;;5050366;28;20044;-76
2022/09/22 00:47:21;;;;;;;1.73;1.08;;;8.60;74.10;;;;;;5060862;28;20052;-76
2022/09/22 00:50:02;;;;;;;2.75;1.33;;;8.60;74.40;;;;;;5061682;28;20048;-76
2022/09/22 00:52:46;;;;;;;1.25;1.10;;;8.50;74.30;;;;;;5071216;28;20503;-77
2022/09/22 00:55:37;;;;;;;1.60;1.10;;;8.50;74.50;;;;;;5046669;28;20047;-76
2022/09/22 00:58:05;;;;;;;3.55;1.13;;;8.50;74.60;;;;;;5080434;28;20044;-76
2022/09/22 01:00:30;;;;;;;1.73;1.05;;;8.40;74.40;;;;;;5033936;28;20032;-76
2022/09/22 01:02:57;;;;;;;1.40;1.20;;;8.40;74.50;;;;;;5031688;28;20044;-77
2022/09/22 01:05:23;;;;;;;1.38;1.10;;;8.40;74.60;;;;;;5027669;28;20037;-76
2022/09/22 01:07:49;;;;;;;2.40;1.30;;;8.40;74.70;;;;;;5048653;28;20147;-76
2022/09/22 01:10:15;;;;;;;1.63;1.20;;;8.40;74.70;;;;;;5033922;28;20039;-76
2022/09/22 01:12:45;;;;;;;1.35;1.23;;;8.40;74.60;;;;;;5051464;28;20352;-76
2022/09/22 01:15:31;;;;;;;2.33;1.17;;;8.30;74.70;;;;;;5062041;28;20481;-77
2022/09/22 01:18:09;;;;;;;2.95;1.20;;;8.30;75.10;;;;;;5055109;28;20035;-77
2022/09/22 01:20:51;;;;;;;2.15;1.10;;;8.30;75.10;;;;;;5031845;28;20028;-76
2022/09/22 01:23:45;;;;;;;1.50;1.20;;;8.30;75.20;;;;;;5062614;28;20085;-76
2022/09/22 01:26:20;;;;;;;2.13;1.52;;;8.20;75.40;;;;;;5091740;28;20632;-76
2022/09/22 01:29:20;;;;;;;1.50;1.17;;;8.30;75.10;;;;;;5041728;28;20024;-76
2022/09/22 01:32:22;;;;;;;1.90;1.20;;;8.20;75.20;;;;;;5072881;28;20035;-76
2022/09/22 01:34:57;;;;;;;1.40;0.98;;;8.20;75.40;;;;;;5056885;28;20036;-75
2022/09/22 01:37:43;;;;;;;1.17;1.08;;;8.10;75.20;;;;;;5044259;28;20043;-76
2022/09/22 01:40:13;;;;;;;1.98;1.23;;;8.10;75.50;;;;;;5028969;28;20043;-76
2022/09/22 01:42:48;;;;;;;3.60;1.20;;;8.10;75.30;;;;;;5029499;28;20044;-77
2022/09/22 01:45:19;;;;;;;2.75;1.80;;;8.10;75.50;;;;;;5043355;28;20099;-75
2022/09/22 01:47:47;;;;;;;1.25;1.15;;;8.00;75.60;;;;;;5042275;28;20495;-76
2022/09/22 01:50:24;;;;;;;3.20;1.10;;;8.00;75.60;;;;;;5046281;28;20056;-76
2022/09/22 01:52:51;;;;;;;8.48;2.97;;;8.10;75.90;;;;;;5033943;28;20421;-75
2022/09/22 01:55:20;;;;;;;2.75;0.90;;;8.00;75.70;;;;;;5055129;28;20435;-76
2022/09/22 01:57:59;;;;;;;1.40;1.10;;;8.00;75.90;;;;;;5058606;28;20039;-76
2022/09/22 02:00:25;;;;;;;1.77;1.23;;;8.00;76.00;;;;;;5044696;28;20032;-76
2022/09/22 02:02:50;;;;;;;1.38;1.00;;;7.90;75.80;;;;;;5028472;28;20040;-77
2022/09/22 02:05:22;;;;;;;4.78;1.17;;;7.90;75.90;;;;;;5081724;28;20519;-77
2022/09/22 02:07:49;;;;;;;2.25;1.30;;;7.90;76.10;;;;;;5048788;28;20032;-79
2022/09/22 02:10:16;;;;;;;1.85;1.30;;;7.90;76.00;;;;;;5052641;28;20039;-76
2022/09/22 02:12:41;;;;;;;1.45;1.20;;;7.90;76.10;;;;;;5050085;28;20036;-75
2022/09/22 02:15:58;;;;;;;3.80;1.60;;;7.90;76.20;;;;;;5062694;28;20036;-77
2022/09/22 02:17:54;;;;;;;1.15;1.05;;;7.80;76.10;;;;;;5053851;28;20036;-76
2022/09/22 02:20:20;;;;;;;1.27;1.13;;;7.80;77.00;;;;;;5047579;28;20126;-77
2022/09/22 02:22:46;;;;;;;2.08;1.30;;;7.80;76.20;;;;;;5067775;28;20036;-77
2022/09/22 02:25:12;;;;;;;2.90;1.35;;;7.80;76.30;;;;;;5052061;28;20052;-76
2022/09/22 02:27:38;;;;;;;2.65;1.02;;;7.70;76.40;;;;;;5052343;28;20059;-77
2022/09/22 02:30:08;;;;;;;1.35;1.13;;;7.70;76.50;;;;;;5050493;28;20049;-77
2022/09/22 02:32:34;;;;;;;1.83;1.00;;;7.80;76.70;;;;;;5075067;28;20039;-76
2022/09/22 02:35:00;;;;;;;2.67;1.10;;;7.70;76.60;;;;;;5027538;28;20636;-77
2022/09/22 02:37:45;;;;;;;1.40;1.30;;;7.70;76.70;;;;;;5063586;28;20514;-76
2022/09/22 02:40:25;;;;;;;2.35;1.00;;;7.70;76.90;;;;;;5065449;28;20070;-77
2022/09/22 02:43:39;;;;;;;1.30;1.00;;;7.70;76.80;;;;;;5065356;28;20092;-76
2022/09/22 02:46:22;;;;;;;1.95;1.05;;;7.70;77.00;;;;;;4929352;28;20062;-76
2022/09/22 02:49:08;;;;;;;2.17;1.13;;;7.60;76.80;;;;;;4977618;28;20066;-76
2022/09/22 02:51:34;;;;;;;1.23;1.13;;;7.60;76.90;;;;;;4962661;28;20039;-76
2022/09/22 02:54:00;;;;;;;2.92;1.13;;;7.50;76.70;;;;;;4964151;28;20036;-76
2022/09/22 02:56:26;;;;;;;1.02;0.88;;;7.50;76.80;;;;;;4930979;28;20088;-76
2022/09/22 02:58:52;;;;;;;1.17;1.02;;;7.50;76.90;;;;;;4963623;28;20030;-76
2022/09/22 03:01:17;;;;;;;2.65;1.20;;;7.50;77.00;;;;;;4963626;28;20085;-75
2022/09/22 03:03:43;;;;;;;3.28;1.17;;;7.40;77.10;;;;;;4979693;28;20749;-77
2022/09/22 03:06:08;;;;;;;2.15;1.20;;;7.50;77.20;;;;;;4971497;28;20027;-76
2022/09/22 03:08:34;;;;;;;2.13;1.33;;;7.40;77.20;;;;;;4965524;28;20501;-76
2022/09/22 03:10:59;;;;;;;1.40;1.20;;;7.40;77.10;;;;;;4952344;28;20042;-76
2022/09/22 03:13:25;;;;;;;3.90;1.15;;;7.30;77.10;;;;;;4949679;28;20061;-75
2022/09/22 03:15:50;;;;;;;1.50;1.10;;;7.30;77.20;;;;;;4970273;28;20077;-76
2022/09/22 03:18:16;;;;;;;2.38;1.15;;;7.30;77.40;;;;;;4962716;28;20443;-77
2022/09/22 03:20:41;;;;;;;1.83;1.30;;;7.30;77.40;;;;;;5032786;28;20025;-76
2022/09/22 03:23:07;;;;;;;10.15;1.40;;;7.20;77.50;;;;;;5013926;28;20025;-76
2022/09/22 03:25:32;;;;;;;2.33;1.25;;;7.20;77.60;;;;;;5011311;28;20044;-76
2022/09/22 03:27:58;;;;;;;3.42;1.40;;;7.20;77.60;;;;;;5055440;28;20025;-76
2022/09/22 03:30:23;;;;;;;1.33;1.15;;;7.20;77.70;;;;;;5037336;28;20032;-76
2022/09/22 03:32:49;;;;;;;1.80;1.23;;;7.20;77.80;;;;;;5038259;28;20036;-76
2022/09/22 03:35:15;;;;;;;2.35;1.48;;;7.20;78.00;;;;;;5038884;28;20022;-77
2022/09/22 03:37:40;;;;;;;2.28;1.10;;;7.20;77.90;;;;;;5040446;28;20041;-76
2022/09/22 03:40:06;;;;;;;2.13;1.13;;;7.20;78.00;;;;;;5041548;28;20377;-75
2022/09/22 03:42:33;;;;;;;2.53;1.25;;;7.20;78.00;;;;;;5022134;28;20573;-76
2022/09/22 03:44:59;;;;;;;3.50;1.30;;;7.20;78.20;;;;;;5014367;28;20032;-76
2022/09/22 03:47:24;;;;;;;1.27;1.17;;;7.20;78.20;;;;;;5041548;28;20658;-77
2022/09/22 03:49:50;;;;;;;2.05;1.30;;;7.20;78.20;;;;;;5035955;28;20040;-76
2022/09/22 03:52:16;;;;;;;2.72;1.20;;;7.20;78.20;;;;;;5048857;28;20638;-76
2022/09/22 03:54:41;;;;;;;2.30;1.10;;;7.20;78.30;;;;;;5048062;28;20029;-76
2022/09/22 03:57:07;;;;;;;2.95;1.13;;;7.20;78.30;;;;;;5037697;28;20051;-77
2022/09/22 03:59:32;;;;;;;2.45;1.48;;;7.20;78.40;;;;;;5032501;28;20823;-76
2022/09/22 04:01:59;;;;;;;1.52;1.30;;;7.20;78.50;;;;;;5065272;28;20040;-77
2022/09/22 04:04:25;;;;;;;3.88;1.10;;;7.20;78.50;;;;;;5022022;28;20669;-76
2022/09/22 04:06:50;;;;;;;1.60;1.13;;;7.20;78.60;;;;;;5041697;28;20028;-76
2022/09/22 04:09:17;;;;;;;2.42;1.40;;;7.10;78.60;;;;;;5079565;28;20099;-76
2022/09/22 04:11:43;;;;;;;4.35;1.40;;;7.10;78.70;;;;;;5049704;28;20020;-75
2022/09/22 04:14:09;;;;;;;1.63;1.20;;;7.10;78.70;;;;;;5047541;28;20047;-76
2022/09/22 04:16:34;;;;;;;1.30;1.20;;;7.10;78.70;;;;;;5063140;28;20061;-75
2022/09/22 04:19:03;;;;;;;7.88;6.25;;;7.10;78.70;;;;;;5053518;28;20036;-77
2022/09/22 04:21:30;;;;;;;10.40;8.65;;;7.10;78.70;;;;;;5050773;28;20100;-76
2022/09/22 04:23:55;;;;;;;5.30;4.75;;;7.10;78.60;;;;;;5046337;28;20032;-76
2022/09/22 04:26:21;;;;;;;5.60;5.00;;;7.00;78.60;;;;;;5054946;28;20041;-76
2022/09/22 04:28:47;;;;;;;10.88;7.88;;;7.00;78.80;;;;;;5059673;28;20111;-77
2022/09/22 04:31:12;;;;;;;11.57;8.70;;;7.00;78.90;;;;;;5053842;28;20036;-76
2022/09/22 04:33:38;;;;;;;17.60;10.27;;;7.00;79.00;;;;;;5041426;28;20029;-76
2022/09/22 04:36:04;;;;;;;16.73;9.98;;;7.00;79.10;;;;;;5071639;28;20028;-76
2022/09/22 04:38:29;;;;;;;6.18;3.42;;;7.00;79.10;;;;;;5053764;28;20050;-76
2022/09/22 04:40:56;;;;;;;8.50;5.95;;;7.00;79.20;;;;;;5070418;28;20032;-76
2022/09/22 04:43:21;;;;;;;7.28;4.68;;;7.00;79.20;;;;;;5075101;28;20036;-77
2022/09/22 04:45:47;;;;;;;7.38;3.33;;;7.00;79.30;;;;;;5084783;28;20028;-76
2022/09/22 04:48:13;;;;;;;11.82;3.42;;;7.00;79.40;;;;;;5083745;28;20040;-76
2022/09/22 04:50:39;;;;;;;7.07;3.40;;;7.00;79.40;;;;;;5068096;28;20118;-77
2022/09/22 04:53:04;;;;;;;9.70;4.97;;;7.00;79.50;;;;;;5071814;28;20024;-77
2022/09/22 04:55:30;;;;;;;12.98;7.40;;;6.90;79.60;;;;;;5073630;28;20016;-77
2022/09/22 04:57:56;;;;;;;14.05;8.23;;;7.00;79.80;;;;;;5091834;28;20586;-76
2022/09/22 05:00:22;;;;;;;11.98;6.80;;;7.00;80.70;;;;;;5040154;28;20048;-77
2022/09/22 05:02:48;;;;;;;10.45;6.93;;;7.00;80.00;;;;;;5072484;28;20047;-76
2022/09/22 05:05:14;;;;;;;12.57;2.53;;;7.00;80.20;;;;;;5071120;28;20869;-77
2022/09/22 05:07:45;;;;;;;5.47;2.50;;;7.00;80.20;;;;;;5043997;28;20035;-77
2022/09/22 05:10:11;;;;;;;4.75;3.00;;;7.00;80.20;;;;;;5089732;28;20024;-77
2022/09/22 05:12:43;;;;;;;3.22;2.85;;;7.10;80.30;;;;;;5091552;28;20281;-76
2022/09/22 05:15:09;;;;;;;7.70;3.08;;;7.10;80.50;;;;;;5073187;28;20059;-76
2022/09/22 05:17:35;;;;;;;4.32;2.35;;;7.10;80.40;;;;;;5072580;28;20095;-77
2022/09/22 05:20:02;;;;;;;5.40;2.60;;;7.10;80.50;;;;;;5092368;28;20302;-76
2022/09/22 05:22:28;;;;;;;7.60;2.70;;;7.10;80.50;;;;;;5069989;28;20044;-76
2022/09/22 05:24:54;;;;;;;3.40;2.63;;;7.20;80.60;;;;;;5072731;28;20050;-77
2022/09/22 05:27:19;;;;;;;5.32;2.72;;;7.20;80.60;;;;;;5052102;28;20043;-77
2022/09/22 05:29:45;;;;;;;4.65;2.00;;;7.20;80.60;;;;;;5086382;28;20036;-77
2022/09/22 05:32:10;;;;;;;39.25;4.72;;;7.20;80.70;;;;;;5077207;28;20347;-77
2022/09/22 05:34:36;;;;;;;10.10;2.58;;;7.20;80.60;;;;;;5054276;28;20595;-79
2022/09/22 05:37:01;;;;;;;20.73;3.35;;;7.20;80.60;;;;;;5069870;28;20416;-77
2022/09/22 05:39:27;;;;;;;14.32;2.35;;;7.20;80.70;;;;;;5082602;28;20535;-77
2022/09/22 05:41:52;;;;;;;3.42;1.98;;;7.20;80.70;;;;;;5081030;28;20032;-77
2022/09/22 05:44:18;;;;;;;4.18;2.00;;;7.20;80.80;;;;;;5064919;28;20028;-78
2022/09/22 05:46:45;;;;;;;17.92;2.30;;;7.20;80.90;;;;;;5066340;28;20028;-77
2022/09/22 05:49:11;;;;;;;3.65;1.80;;;7.20;80.90;;;;;;5067986;28;20044;-78
2022/09/22 05:51:36;;;;;;;7.68;1.60;;;7.20;81.10;;;;;;5044759;28;20100;-77
2022/09/22 05:54:02;;;;;;;16.88;2.47;;;7.20;81.10;;;;;;5031256;28;20044;-78
2022/09/22 05:56:29;;;;;;;8.85;2.30;;;7.20;81.20;;;;;;5089705;28;20046;-78
2022/09/22 05:58:54;;;;;;;17.77;2.30;;;7.20;81.20;;;;;;5068843;28;20036;-78
2022/09/22 06:01:20;;;;;;;4.53;1.48;;;7.30;81.30;;;;;;5054942;28;20051;-78
2022/09/22 06:03:45;;;;;;;1.67;1.23;;;7.30;81.40;;;;;;5092352;28;20042;-77
2022/09/22 06:06:11;;;;;;;1.60;1.30;;;7.30;81.40;;;;;;5074667;28;20036;-77
2022/09/22 06:08:37;;;;;;;46.60;3.47;;;7.30;81.50;;;;;;5062334;28;20096;-77
2022/09/22 06:11:02;;;;;;;21.58;2.08;;;7.30;81.50;;;;;;5063149;28;20107;-77
2022/09/22 06:13:29;;;;;;;26.92;3.55;;;7.40;81.60;;;;;;5073599;28;20162;-76
2022/09/22 06:15:54;;;;;;;2.80;2.00;;;7.40;81.70;;;;;;5059164;28;20037;-77
2022/09/22 06:18:20;;;;;;;8.82;2.25;;;7.40;81.70;;;;;;5090995;28;20043;-76
2022/09/22 06:20:45;;;;;;;7.53;2.50;;;7.40;81.70;;;;;;5089024;28;20032;-77
2022/09/22 06:23:12;;;;;;;17.45;3.15;;;7.40;81.70;;;;;;5089392;28;20096;-77
2022/09/22 06:25:37;;;;;;;3.90;2.00;;;7.50;81.80;;;;;;5046806;28;20061;-75
2022/09/22 06:28:05;;;;;;;2.20;1.73;;;7.50;81.80;;;;;;5048504;28;20032;-76
2022/09/22 06:30:31;;;;;;;4.13;2.15;;;7.50;81.80;;;;;;5065604;28;20074;-76
2022/09/22 06:32:56;;;;;;;5.50;2.60;;;7.60;82.00;;;;;;5049656;28;20093;-76
2022/09/22 06:35:22;;;;;;;3.80;2.83;;;7.60;82.00;;;;;;5052887;28;20036;-77
2022/09/22 06:37:55;;;;;;;3.50;2.17;;;7.60;81.90;;;;;;5048396;28;20036;-76
2022/09/22 06:40:21;;;;;;;5.18;2.45;;;7.70;82.10;;;;;;5079116;28;20067;-76
2022/09/22 06:42:48;;;;;;;3.70;2.28;;;7.70;82.00;;;;;;5056214;28;20051;-76
2022/09/22 06:45:14;;;;;;;3.55;2.22;;;7.80;82.00;;;;;;5075239;28;20043;-75
2022/09/22 06:47:40;;;;;;;5.03;2.25;;;7.80;82.10;;;;;;5091495;28;20028;-76
2022/09/22 06:50:08;;;;;;;2.33;1.90;;;7.80;82.00;;;;;;5041245;28;20033;-76
2022/09/22 06:52:35;;;;;;;3.85;2.35;;;7.90;82.00;;;;;;5048336;28;20056;-76
2022/09/22 06:55:01;;;;;;;3.72;2.40;;;8.00;82.00;;;;;;5048786;28;20508;-76
2022/09/22 06:57:30;;;;;;;6.15;3.00;;;8.00;82.00;;;;;;5035502;28;20061;-76
2022/09/22 06:59:56;;;;;;;6.38;3.42;;;8.10;82.00;;;;;;5033825;28;20032;-75
2022/09/22 07:02:26;;;;;;;5.57;2.80;;;8.10;81.80;;;;;;5029127;28;21448;-76
2022/09/22 07:04:52;;;;;;;7.53;3.90;;;8.10;81.70;;;;;;5039379;28;20102;-76
2022/09/22 07:07:17;;;;;;;15.07;6.63;;;8.10;81.90;;;;;;5051562;28;20116;-76
2022/09/22 07:09:43;;;;;;;6.63;3.50;;;8.20;81.90;;;;;;5050310;28;20047;-76
2022/09/22 07:12:09;;;;;;;9.30;3.78;;;8.20;81.80;;;;;;5033234;28;20783;-76
2022/09/22 07:14:34;;;;;;;6.30;3.53;;;8.20;82.00;;;;;;5052443;28;20033;-76
2022/09/22 07:17:00;;;;;;;6.53;3.70;;;8.40;82.00;;;;;;5033216;28;20055;-76
2022/09/22 07:19:25;;;;;;;9.40;4.90;;;8.40;82.00;;;;;;5046991;28;20609;-76
2022/09/22 07:21:51;;;;;;;7.90;4.47;;;8.50;81.80;;;;;;5027942;28;20037;-76
2022/09/22 07:24:48;;;;;;;6.60;4.05;;;8.60;81.70;;;;;;5026865;28;20082;-76
2022/09/22 07:27:24;;;;;;;9.90;4.18;;;8.70;82.10;;;;;;5031290;28;20032;-76
2022/09/22 07:29:49;;;;;;;8.30;4.00;;;8.80;81.60;;;;;;5046734;28;20561;-75
2022/09/22 07:32:15;;;;;;;5.00;3.65;;;9.00;81.60;;;;;;5041231;28;20036;-75
2022/09/22 07:34:40;;;;;;;4.82;3.50;;;9.10;81.50;;;;;;5043404;28;20029;-75
2022/09/22 07:37:07;;;;;;;11.98;4.30;;;9.20;81.50;;;;;;5044076;28;20060;-75
2022/09/22 07:39:33;;;;;;;5.38;3.42;;;9.40;81.40;;;;;;5061718;28;20088;-75
2022/09/22 07:41:58;;;;;;;8.18;3.38;;;9.50;81.30;;;;;;5041504;28;20242;-76
2022/09/22 07:47:08;;;;;;;9.90;4.50;;;9.80;81.10;;;;;;5047451;28;20064;-75
2022/09/22 07:49:34;;;;;;;6.50;3.60;;;10.00;80.80;;;;;;5069747;28;20043;-75
2022/09/22 07:51:59;;;;;;;5.30;2.88;;;10.10;80.60;;;;;;5065832;28;20040;-75
2022/09/22 07:54:25;;;;;;;5.72;2.67;;;10.20;80.20;;;;;;5052064;28;20040;-76
2022/09/22 07:56:56;;;;;;;4.78;2.50;;;10.30;80.20;;;;;;5066352;28;20039;-75
2022/09/22 07:59:22;;;;;;;5.45;2.72;;;10.40;80.20;;;;;;5056425;28;21944;-76
2022/09/22 08:01:50;;;;;;;3.55;2.35;;;10.60;80.10;;;;;;5066881;28;20050;-75
2022/09/22 08:04:17;;;;;;;5.03;2.03;;;10.70;79.70;;;;;;5054363;28;20028;-76
2022/09/22 08:06:43;;;;;;;4.05;2.40;;;10.90;79.60;;;;;;5069539;28;20028;-75
2022/09/22 08:09:09;;;;;;;7.03;2.13;;;11.10;79.50;;;;;;5069293;28;20043;-78
2022/09/22 08:11:35;;;;;;;3.58;2.08;;;11.30;79.30;;;;;;5040921;28;20040;-77
2022/09/22 08:14:02;;;;;;;5.40;2.25;;;11.40;79.30;;;;;;5055587;28;20032;-76
2022/09/22 08:16:29;;;;;;;9.10;1.92;;;11.60;78.70;;;;;;5051628;28;20040;-77
2022/09/22 08:18:55;;;;;;;10.85;3.10;;;11.70;78.30;;;;;;5053574;28;20055;-75
2022/09/22 08:21:40;;;;;;;6.80;1.90;;;11.90;78.00;;;;;;5038271;28;20119;-76
2022/09/22 08:24:08;;;;;;;3.38;1.70;;;12.00;77.50;;;;;;5055690;28;20048;-76
2022/09/22 08:26:35;;;;;;;4.60;2.33;;;12.10;77.10;;;;;;5054844;28;20065;-75
2022/09/22 08:29:01;;;;;;;5.30;2.05;;;12.20;76.80;;;;;;5060175;28;21448;-74
2022/09/22 08:31:27;;;;;;;4.03;1.83;;;12.40;76.80;;;;;;5077846;28;20048;-74
2022/09/22 08:33:53;;;;;;;5.25;2.10;;;12.60;76.80;;;;;;5081886;28;20040;-75
2022/09/22 08:36:19;;;;;;;5.90;2.47;;;12.80;76.80;;;;;;5076000;28;20024;-75
2022/09/22 08:38:48;;;;;;;5.65;2.40;;;13.00;76.60;;;;;;5062139;28;20036;-75
2022/09/22 08:41:37;;;;;;;7.13;2.00;;;13.30;76.30;;;;;;5058969;28;20040;-75
2022/09/22 08:44:07;;;;;;;3.95;2.20;;;13.50;76.00;;;;;;5078796;28;20438;-74
2022/09/22 08:46:34;;;;;;;5.63;2.50;;;13.80;75.80;;;;;;5063409;28;20024;-75
2022/09/22 08:52:29;;;;;;;7.57;2.65;;;14.30;74.70;;;;;;5052826;28;20036;-74
2022/09/22 08:54:58;;;;;;;3.13;2.10;;;14.50;74.40;;;;;;5036874;28;20025;-75
2022/09/22 08:57:44;;;;;;;6.38;2.97;;;14.70;73.90;;;;;;5024418;28;20045;-74
2022/09/22 09:00:14;;;;;;;4.55;2.67;;;14.90;73.20;;;;;;5034779;28;20037;-74
2022/09/22 09:03:01;;;;;;;8.85;2.75;;;15.00;73.10;;;;;;5039460;28;20090;-76
2022/09/22 09:05:38;;;;;;;7.07;2.67;;;15.20;72.70;;;;;;5050701;28;20406;-75
2022/09/22 09:08:26;;;;;;;6.38;3.00;;;15.50;72.30;;;;;;5040228;28;20123;-75
2022/09/22 09:10:55;;;;;;;9.02;2.58;;;15.70;71.40;;;;;;5036587;28;20032;-76
2022/09/22 09:13:36;;;;;;;5.75;2.78;;;15.90;71.50;;;;;;5021779;28;20063;-75
2022/09/22 09:16:19;;;;;;;3.72;1.85;;;16.20;70.60;;;;;;5049644;28;20082;-76
2022/09/22 09:18:51;;;;;;;4.47;2.00;;;16.50;69.40;;;;;;5049935;28;20459;-74
2022/09/22 09:21:17;;;;;;;3.55;1.60;;;16.50;69.50;;;;;;5048211;28;20037;-75
2022/09/22 09:23:53;;;;;;;6.40;1.95;;;16.80;69.50;;;;;;5045875;28;20040;-75
2022/09/22 09:26:18;;;;;;;2.95;1.70;;;17.00;68.30;;;;;;5036238;28;20036;-75
2022/09/22 09:28:52;;;;;;;8.15;2.13;;;17.10;68.40;;;;;;5034606;28;20039;-75
2022/09/22 09:31:27;;;;;;;4.95;2.33;;;17.40;68.00;;;;;;5036438;28;20036;-74
2022/09/22 09:34:06;;;;;;;4.53;2.13;;;17.60;66.60;;;;;;5048842;28;20508;-75
2022/09/22 09:36:36;;;;;;;5.10;1.77;;;17.60;65.90;;;;;;5038047;28;20079;-75
2022/09/22 09:39:13;;;;;;;4.30;1.70;;;17.60;66.30;;;;;;5022366;28;20068;-76
2022/09/22 09:41:40;;;;;;;2.92;1.63;;;17.80;66.40;;;;;;5032620;28;20037;-75
2022/09/22 09:44:06;;;;;;;4.68;2.17;;;18.10;66.40;;;;;;5049771;28;20143;-76
2022/09/22 09:46:53;;;;;;;3.75;1.70;;;18.30;66.00;;;;;;5050053;28;20072;-75
2022/09/22 09:49:19;;;;;;;3.58;1.55;;;18.60;64.90;;;;;;5046679;28;20093;-76
2022/09/22 09:51:53;;;;;;;2.33;1.30;;;18.70;64.70;;;;;;5039650;28;20032;-76
2022/09/22 09:54:19;;;;;;;4.28;1.70;;;18.80;64.40;;;;;;5063221;28;20065;-75
2022/09/22 09:57:03;;;;;;;4.32;1.42;;;19.00;64.20;;;;;;5076632;28;20048;-70
2022/09/22 10:02:19;;;;;;;4.03;1.40;;;19.40;63.30;;;;;;5050013;28;20035;-73
2022/09/22 10:04:49;;;;;;;1.52;1.02;;;19.70;62.60;;;;;;5047306;28;20040;-73
2022/09/22 10:07:20;;;;;;;2.93;1.20;;;19.90;61.90;;;;;;5056348;28;20566;-73
2022/09/22 10:09:47;;;;;;;3.53;2.00;;;19.90;61.20;;;;;;5042225;28;20641;-72
2022/09/22 10:12:29;;;;;;;2.53;1.30;;;20.10;61.20;;;;;;5056804;28;20032;-72
2022/09/22 10:14:56;;;;;;;3.55;1.33;;;20.30;60.50;;;;;;5057770;28;20067;-72
2022/09/22 10:17:40;;;;;;;2.78;1.13;;;20.60;60.90;;;;;;5046417;28;20043;-74
2022/09/22 10:20:16;;;;;;;2.33;1.13;;;20.90;60.50;;;;;;5060193;28;20697;-74
2022/09/22 10:22:42;;;;;;;1.77;1.20;;;21.10;59.80;;;;;;5068026;28;21397;-73
2022/09/22 10:25:18;;;;;;;4.00;1.45;;;21.40;59.70;;;;;;5055868;28;20104;-73
2022/09/22 10:27:57;;;;;;;2.55;1.27;;;21.60;58.60;;;;;;5033578;28;20040;-72
2022/09/22 10:30:23;;;;;;;4.38;1.33;;;21.80;58.60;;;;;;5033128;28;20565;-73
2022/09/22 10:33:07;;;;;;;3.35;1.17;;;21.90;58.40;;;;;;5054517;28;20043;-74
2022/09/22 10:35:33;;;;;;;5.10;1.55;;;22.10;57.50;;;;;;5071975;28;20127;-72
2022/09/22 10:38:08;;;;;;;5.75;1.33;;;22.40;57.50;;;;;;5075581;28;20123;-71
2022/09/22 10:40:34;;;;;;;6.38;1.50;;;22.50;57.10;;;;;;5043970;28;20040;-72
2022/09/22 10:43:00;;;;;;;3.28;1.30;;;22.70;56.60;;;;;;5057486;28;20047;-72
2022/09/22 10:45:47;;;;;;;2.58;1.25;;;22.90;55.90;;;;;;5040343;28;20035;-71
2022/09/22 10:48:16;;;;;;;3.28;1.20;;;23.10;54.30;;;;;;5059018;28;20553;-77
2022/09/22 10:50:54;;;;;;;3.08;1.35;;;23.00;54.60;;;;;;5031373;28;20099;-76
2022/09/22 10:53:30;;;;;;;3.47;1.13;;;22.90;53.30;;;;;;5034075;28;20033;-75
2022/09/22 10:56:04;;;;;;;2.50;1.17;;;22.90;53.90;;;;;;5033103;28;20032;-75
2022/09/22 10:58:54;;;;;;;3.50;1.33;;;23.00;54.40;;;;;;5050547;28;20035;-76
2022/09/22 11:01:25;;;;;;;2.45;0.82;;;23.20;53.60;;;;;;5035140;28;20078;-76
2022/09/22 11:04:17;;;;;;;1.00;0.77;;;23.40;53.20;;;;;;5020817;28;20489;-76
2022/09/22 11:13:20;;;;;;;1.13;0.60;;;23.80;50.90;;;;;;5048623;28;21281;-76
2022/09/22 11:16:26;;;;;;;2.42;0.70;;;23.80;52.50;;;;;;5039882;28;20071;-77
2022/09/22 11:19:12;;;;;;;1.75;0.57;;;24.00;51.40;;;;;;5046488;28;20547;-77
2022/09/22 11:22:14;;;;;;;0.73;0.63;;;24.10;51.70;;;;;;5049125;28;20073;-78
2022/09/22 11:24:46;;;;;;;1.15;0.70;;;24.30;50.10;;;;;;5052995;28;20671;-76
2022/09/22 11:27:20;;;;;;;1.05;0.32;;;24.50;50.80;;;;;;5035219;28;20040;-75
2022/09/22 11:29:55;;;;;;;1.05;0.75;;;24.60;50.40;;;;;;5034129;28;20032;-76
2022/09/22 11:32:33;;;;;;;1.10;0.60;;;24.70;49.30;;;;;;5023605;28;20037;-77
2022/09/22 11:35:38;;;;;;;0.80;0.60;;;24.60;49.20;;;;;;5023092;28;20068;-77
2022/09/22 11:38:30;;;;;;;0.70;0.40;;;24.60;49.90;;;;;;4970719;28;20727;-77
2022/09/22 11:41:29;;;;;;;0.60;0.60;;;24.90;48.70;;;;;;5051274;28;20037;-75
2022/09/22 11:44:22;;;;;;;2.03;1.00;;;25.10;48.70;;;;;;5047474;28;20030;-78
2022/09/22 11:47:11;;;;;;;0.80;0.52;;;25.30;46.80;;;;;;5025223;28;20658;-77
2022/09/22 11:49:49;;;;;;;2.60;0.85;;;25.30;47.20;;;;;;5064460;28;20047;-76
2022/09/22 11:52:28;;;;;;;0.45;0.40;;;25.20;47.10;;;;;;5061827;28;20758;-77
2022/09/22 11:55:10;;;;;;;2.33;0.80;;;25.30;45.80;;;;;;5080649;28;20515;-77
2022/09/22 11:57:38;;;;;;;1.55;0.57;;;25.40;46.30;;;;;;5061580;28;20535;-77
2022/09/22 12:00:18;;;;;;;3.13;0.80;;;25.50;47.00;;;;;;5060609;28;20487;-78
2022/09/22 12:03:20;;;;;;;1.40;0.70;;;25.60;44.80;;;;;;5063889;28;20215;-77
2022/09/22 12:05:47;;;;;;;1.00;0.43;;;25.70;44.70;;;;;;5017101;28;20172;-76
2022/09/22 12:08:15;;;;;;;1.45;0.60;;;25.80;45.70;;;;;;5063638;28;20039;-77
2022/09/22 12:10:44;;;;;;;1.05;0.80;;;25.60;45.20;;;;;;5039913;28;21326;-79
2022/09/22 12:13:14;;;;;;;1.58;0.50;;;25.40;44.70;;;;;;5050354;28;20045;-76
2022/09/22 12:16:04;;;;;;;0.33;0.33;;;25.40;45.70;;;;;;5054377;28;20044;-76
2022/09/22 12:19:04;;;;;;;2.53;0.90;;;25.60;43.80;;;;;;5037649;28;20036;-76
2022/09/22 12:21:49;;;;;;;1.38;0.60;;;25.90;44.60;;;;;;5073001;28;20045;-76
2022/09/22 12:24:14;;;;;;;2.45;0.60;;;26.20;43.00;;;;;;5071594;28;20028;-76
2022/09/22 12:26:45;;;;;;;3.45;0.90;;;26.30;44.30;;;;;;5051560;28;20101;-77
2022/09/22 12:29:13;;;;;;;1.95;0.63;;;26.30;44.00;;;;;;5059162;28;20036;-77
2022/09/22 12:31:40;;;;;;;2.88;0.60;;;26.50;44.30;;;;;;5064389;28;20082;-77
2022/09/22 12:34:14;;;;;;;1.70;0.57;;;26.60;44.10;;;;;;5071862;28;20028;-77
2022/09/22 12:36:40;;;;;;;69.63;10.75;;;26.70;43.50;;;;;;5056703;28;20036;-79
2022/09/22 12:39:26;;;;;;;14.07;2.38;;;26.70;43.70;;;;;;5071541;28;20472;-76
2022/09/22 12:42:00;;;;;;;5.78;1.38;;;26.70;42.10;;;;;;5072735;28;20040;-78
2022/09/22 12:44:49;;;;;;;8.02;1.30;;;26.70;43.70;;;;;;5070955;28;20135;-79
2022/09/22 12:47:23;;;;;;;4.35;0.80;;;26.80;41.90;;;;;;5072849;28;20055;-78
2022/09/22 12:49:54;;;;;;;3.17;0.80;;;27.00;43.10;;;;;;5063563;28;20044;-76
2022/09/22 12:52:39;;;;;;;1.05;0.43;;;27.30;42.60;;;;;;5080496;28;20031;-78
2022/09/22 12:55:18;;;;;;;1.48;0.57;;;27.50;41.20;;;;;;5091716;28;20688;-77
2022/09/22 12:57:48;;;;;;;1.55;0.60;;;27.80;40.40;;;;;;5037502;28;20044;-78
2022/09/22 13:00:22;;;;;;;0.70;0.40;;;27.80;40.90;;;;;;5068729;28;20046;-77
2022/09/22 13:02:49;;;;;;;2.63;0.50;;;27.80;40.50;;;;;;5078265;28;20457;-78
2022/09/22 13:05:24;;;;;;;0.95;0.50;;;28.00;40.70;;;;;;5075986;28;20118;-76
2022/09/22 13:07:50;;;;;;;1.25;0.40;;;28.10;40.30;;;;;;5079302;28;20032;-77
2022/09/22 13:10:22;;;;;;;0.70;0.60;;;28.20;40.70;;;;;;5079958;28;20067;-78
2022/09/22 13:13:00;;;;;;;0.98;0.50;;;28.30;39.60;;;;;;5083096;28;20035;-77
2022/09/22 13:15:44;;;;;;;2.15;0.70;;;28.40;38.60;;;;;;5078002;28;20031;-77
2022/09/22 13:18:34;;;;;;;1.40;0.50;;;28.50;39.60;;;;;;5075766;28;20032;-76
2022/09/22 13:21:13;;;;;;;0.90;0.50;;;28.60;37.40;;;;;;5076436;28;20051;-78
2022/09/22 13:23:48;;;;;;;0.75;0.65;;;28.60;38.90;;;;;;5077032;28;20089;-77
2022/09/22 13:26:14;;;;;;;1.63;0.43;;;28.50;38.60;;;;;;5075994;28;20102;-77
2022/09/22 13:28:39;;;;;;;0.82;0.50;;;28.40;38.40;;;;;;5074546;28;20434;-77